createdAt,value
2017-11-04T00:00:53.738Z,8.50
2017-11-04T00:03:21.989Z,8.40
2017-11-04T00:05:50.250Z,8.40
2017-11-04T00:08:18.514Z,8.50
2017-11-04T00:10:46.766Z,8.40
2017-11-04T00:13:15.018Z,8.40
2017-11-04T00:15:43.297Z,8.40
2017-11-04T00:18:12.322Z,8.30
2017-11-04T00:20:40.578Z,8.30
2017-11-04T00:23:09.102Z,8.40
2017-11-04T00:25:37.341Z,8.40
2017-11-04T00:28:05.599Z,8.40
2017-11-04T00:30:33.875Z,8.40
2017-11-04T00:33:02.902Z,8.30
2017-11-04T00:35:32.157Z,8.30
2017-11-04T00:38:00.430Z,8.30
2017-11-04T00:40:29.526Z,8.30
2017-11-04T00:42:57.782Z,8.20
2017-11-04T00:45:26.355Z,8.20
2017-11-04T00:47:54.758Z,8.20
2017-11-04T00:50:23.020Z,8.20
2017-11-04T00:52:51.307Z,8.20
2017-11-04T00:55:19.818Z,8.20
2017-11-04T00:57:48.854Z,8.10
2017-11-04T01:00:17.135Z,8.10
2017-11-04T01:02:45.400Z,8.10
2017-11-04T01:05:13.646Z,8.00
2017-11-04T01:07:42.774Z,8.00
2017-11-04T01:10:11.020Z,8.00
2017-11-04T01:12:40.043Z,8.00
2017-11-04T01:15:08.309Z,8.00
2017-11-04T01:17:36.571Z,8.10
2017-11-04T01:20:04.833Z,8.10
2017-11-04T01:22:33.877Z,8.00
2017-11-04T01:25:02.137Z,8.00
2017-11-04T01:27:30.384Z,8.10
2017-11-04T01:29:59.021Z,8.10
2017-11-04T01:32:27.270Z,8.10
2017-11-04T01:34:55.519Z,8.00
2017-11-04T01:37:23.822Z,7.90
2017-11-04T01:39:52.826Z,7.90
2017-11-04T01:42:21.278Z,7.90
2017-11-04T01:44:49.558Z,7.90
2017-11-04T01:47:18.573Z,7.90
2017-11-04T01:49:46.817Z,7.90
2017-11-04T01:52:15.230Z,7.90
2017-11-04T01:54:43.486Z,8.00
2017-11-04T01:57:11.737Z,8.10
2017-11-04T01:59:40.133Z,8.10
2017-11-04T02:02:09.173Z,8.10
2017-11-04T02:04:37.427Z,8.00
2017-11-04T02:07:05.702Z,8.00
2017-11-04T02:09:33.955Z,7.90
2017-11-04T02:12:02.975Z,7.90
2017-11-04T02:14:31.308Z,7.90
2017-11-04T02:16:59.550Z,7.90
2017-11-04T02:19:27.806Z,7.90
2017-11-04T02:21:56.084Z,7.90
2017-11-04T02:24:24.335Z,7.90
2017-11-04T02:26:52.582Z,7.90
2017-11-04T02:29:20.863Z,7.90
2017-11-04T02:31:49.114Z,7.90
2017-11-04T02:34:17.364Z,7.90
2017-11-04T02:36:47.113Z,7.80
2017-11-04T02:39:15.358Z,7.80
2017-11-04T02:41:43.610Z,7.80
2017-11-04T02:44:12.131Z,7.80
2017-11-04T02:46:40.375Z,7.90
2017-11-04T02:49:08.646Z,7.90
2017-11-04T02:51:37.679Z,7.90
2017-11-04T02:54:05.930Z,7.80
2017-11-04T02:56:34.180Z,7.80
2017-11-04T02:59:02.814Z,7.90
2017-11-04T03:01:31.066Z,7.80
2017-11-04T03:03:59.509Z,7.80
2017-11-04T03:06:27.775Z,7.80
2017-11-04T03:08:56.040Z,7.80
2017-11-04T03:11:24.294Z,7.80
2017-11-04T03:13:52.558Z,7.80
2017-11-04T03:16:21.698Z,7.90
2017-11-04T03:18:49.955Z,7.80
2017-11-04T03:21:18.534Z,7.80
2017-11-04T03:23:46.766Z,7.80
2017-11-04T03:26:15.011Z,7.80
2017-11-04T03:28:43.278Z,7.90
2017-11-04T03:31:11.527Z,7.90
2017-11-04T03:33:39.772Z,7.90
2017-11-04T03:36:08.805Z,7.80
2017-11-04T03:38:37.046Z,7.80
2017-11-04T03:41:05.290Z,7.70
2017-11-04T03:43:33.643Z,7.70
2017-11-04T03:46:02.287Z,7.70
2017-11-04T03:48:31.304Z,7.70
2017-11-04T03:51:00.006Z,7.70
2017-11-04T03:53:28.260Z,7.60
2017-11-04T03:55:56.499Z,7.50
2017-11-04T03:58:24.767Z,7.50
2017-11-04T04:00:53.010Z,7.60
2017-11-04T04:03:21.250Z,7.60
2017-11-04T04:05:50.603Z,7.60
2017-11-04T04:08:18.850Z,7.50
2017-11-04T04:10:47.098Z,7.60
2017-11-04T04:13:16.130Z,7.60
2017-11-04T04:15:44.383Z,7.60
2017-11-04T04:18:12.628Z,7.60
2017-11-04T04:20:40.903Z,7.60
2017-11-04T04:23:09.146Z,7.60
2017-11-04T04:25:37.401Z,7.70
2017-11-04T04:28:05.722Z,7.70
2017-11-04T04:30:33.966Z,7.70
2017-11-04T04:33:02.210Z,7.70
2017-11-04T04:35:30.482Z,7.70
2017-11-04T04:37:59.498Z,7.60
2017-11-04T04:40:27.754Z,7.60
2017-11-04T04:42:56.022Z,7.60
2017-11-04T04:45:25.046Z,7.50
2017-11-04T04:47:53.609Z,7.50
2017-11-04T04:50:22.977Z,7.40
2017-11-04T04:52:51.259Z,7.40
2017-11-04T04:55:19.507Z,7.50
2017-11-04T04:57:47.770Z,7.40
2017-11-04T05:00:16.015Z,7.40
2017-11-04T05:02:44.263Z,7.40
2017-11-04T05:05:12.918Z,7.40
2017-11-04T05:07:41.157Z,7.40
2017-11-04T05:10:09.403Z,7.40
2017-11-04T05:12:37.759Z,7.40
2017-11-04T05:15:05.999Z,7.40
2017-11-04T05:17:34.422Z,7.40
2017-11-04T05:20:02.686Z,7.30
2017-11-04T05:22:30.930Z,7.30
2017-11-04T05:24:59.178Z,7.40
2017-11-04T05:27:27.446Z,7.40
2017-11-04T05:29:55.694Z,7.40
2017-11-04T05:32:23.933Z,7.50
2017-11-04T05:34:52.574Z,7.50
2017-11-04T05:37:20.822Z,7.50
2017-11-04T05:39:49.074Z,7.50
2017-11-04T05:42:17.356Z,7.60
2017-11-04T05:44:45.603Z,7.60
2017-11-04T05:47:13.859Z,7.60
2017-11-04T05:49:42.246Z,7.60
2017-11-04T05:52:10.498Z,7.60
2017-11-04T05:54:38.733Z,7.60
2017-11-04T05:57:07.055Z,7.60
2017-11-04T05:59:35.306Z,7.50
2017-11-04T06:02:03.559Z,7.50
2017-11-04T06:04:31.824Z,7.50
2017-11-04T06:07:00.841Z,7.40
2017-11-04T06:09:29.090Z,7.40
2017-11-04T06:11:57.362Z,7.40
2017-11-04T06:14:25.604Z,7.40
2017-11-04T06:16:53.851Z,7.40
2017-11-04T06:19:23.683Z,7.50
2017-11-04T06:21:51.930Z,7.50
2017-11-04T06:24:20.192Z,7.50
2017-11-04T06:26:48.438Z,7.50
2017-11-04T06:29:16.682Z,7.50
2017-11-04T06:31:44.935Z,7.50
2017-11-04T06:34:13.211Z,7.50
2017-11-04T06:36:41.458Z,7.50
2017-11-04T06:39:09.706Z,7.50
2017-11-04T06:41:38.166Z,7.50
2017-11-04T06:44:06.418Z,7.60
2017-11-04T06:46:34.655Z,7.60
2017-11-04T06:49:02.927Z,7.60
2017-11-04T06:51:31.599Z,7.60
2017-11-04T06:53:59.843Z,7.50
2017-11-04T06:56:28.118Z,7.60
2017-11-04T06:58:56.365Z,7.60
2017-11-04T07:01:24.614Z,7.60
2017-11-04T07:03:53.279Z,7.70
2017-11-04T07:06:21.530Z,7.70
2017-11-04T07:08:49.774Z,7.80
2017-11-04T07:11:18.043Z,7.80
2017-11-04T07:13:46.294Z,7.80
2017-11-04T07:16:14.539Z,7.90
2017-11-04T07:18:42.806Z,7.90
2017-11-04T07:21:11.050Z,7.90
2017-11-04T07:23:39.304Z,7.90
2017-11-04T07:26:07.867Z,7.90
2017-11-04T07:28:36.111Z,7.90
2017-11-04T07:31:04.354Z,8.00
2017-11-04T07:33:32.626Z,8.00
2017-11-04T07:36:00.866Z,8.00
2017-11-04T07:38:29.117Z,8.00
2017-11-04T07:40:58.159Z,8.10
2017-11-04T07:43:26.385Z,8.10
2017-11-04T07:45:54.631Z,8.10
2017-11-04T07:48:23.173Z,8.20
2017-11-04T07:50:51.424Z,8.20
2017-11-04T07:53:19.899Z,8.20
2017-11-04T07:55:48.929Z,8.20
2017-11-04T07:58:17.195Z,8.20
2017-11-04T08:00:45.445Z,8.20
2017-11-04T08:03:13.726Z,8.30
2017-11-04T08:05:42.738Z,8.40
2017-11-04T08:08:10.982Z,8.40
2017-11-04T08:10:40.510Z,8.40
2017-11-04T08:13:08.762Z,8.50
2017-11-04T08:15:37.786Z,8.50
2017-11-04T08:18:06.133Z,8.50
2017-11-04T08:20:35.155Z,8.60
2017-11-04T08:23:03.402Z,8.60
2017-11-04T08:25:31.671Z,8.70
2017-11-04T08:27:59.920Z,8.80
2017-11-04T08:30:28.178Z,8.80
2017-11-04T08:32:56.766Z,8.90
2017-11-04T08:35:25.062Z,9.00
2017-11-04T08:37:53.286Z,9.10
2017-11-04T08:40:21.559Z,9.20
2017-11-04T08:42:50.569Z,9.30
2017-11-04T08:45:18.906Z,9.30
2017-11-04T08:47:47.177Z,9.40
2017-11-04T08:50:15.422Z,9.50
2017-11-04T08:52:43.670Z,9.50
2017-11-04T08:55:12.665Z,9.50
2017-11-04T08:57:40.922Z,9.50
2017-11-04T09:00:09.171Z,9.50
2017-11-04T09:02:37.447Z,9.60
2017-11-04T09:05:05.698Z,9.70
2017-11-04T09:07:33.955Z,9.70
2017-11-04T09:10:02.254Z,9.70
2017-11-04T09:12:30.506Z,9.70
2017-11-04T09:14:58.771Z,9.80
2017-11-04T09:17:27.082Z,9.80
2017-11-04T09:19:55.341Z,9.90
2017-11-04T09:22:23.582Z,9.90
2017-11-04T09:24:51.850Z,9.90
2017-11-04T09:27:20.104Z,9.80
2017-11-04T09:29:48.350Z,9.90
2017-11-04T09:32:17.068Z,9.90
2017-11-04T09:34:45.293Z,9.90
2017-11-04T09:37:14.298Z,9.90
2017-11-04T09:39:42.707Z,9.90
2017-11-04T09:42:10.968Z,9.90
2017-11-04T09:44:39.207Z,9.90
2017-11-04T09:47:08.251Z,9.90
2017-11-04T09:49:36.498Z,9.90
2017-11-04T09:52:04.751Z,10.00
2017-11-04T09:54:33.028Z,10.00
2017-11-04T09:57:01.434Z,10.20
2017-11-04T09:59:29.695Z,10.20
2017-11-04T10:01:59.031Z,10.40
2017-11-04T10:04:27.402Z,10.40
2017-11-04T10:06:55.722Z,10.50
2017-11-04T10:09:24.000Z,10.60
2017-11-04T10:11:53.776Z,10.70
2017-11-04T10:14:22.054Z,10.80
2017-11-04T10:16:50.328Z,10.90
2017-11-04T10:19:18.590Z,11.00
2017-11-04T10:21:46.847Z,11.10
2017-11-04T10:24:15.175Z,11.10
2017-11-04T10:26:43.421Z,11.20
2017-11-04T10:29:11.682Z,11.40
2017-11-04T10:31:39.959Z,11.50
2017-11-04T10:34:08.207Z,11.50
2017-11-04T10:36:36.469Z,11.60
2017-11-04T10:39:04.747Z,11.70
2017-11-04T10:41:33.009Z,11.70
2017-11-04T10:44:01.257Z,11.80
2017-11-04T10:46:29.626Z,11.80
2017-11-04T10:48:57.882Z,11.80
2017-11-04T10:51:26.911Z,12.00
2017-11-04T10:53:55.194Z,11.90
2017-11-04T10:56:23.450Z,12.00
2017-11-04T10:58:51.714Z,12.20
2017-11-04T11:01:20.760Z,12.50
2017-11-04T11:03:49.054Z,12.40
2017-11-04T11:06:17.319Z,12.60
2017-11-04T11:08:45.646Z,12.70
2017-11-04T11:11:13.918Z,12.70
2017-11-04T11:13:42.949Z,12.90
2017-11-04T11:16:11.240Z,12.80
2017-11-04T11:18:40.566Z,13.10
2017-11-04T11:21:08.822Z,13.10
2017-11-04T11:23:37.100Z,13.20
2017-11-04T11:28:40.786Z,14.00
2017-11-04T11:31:09.037Z,14.00
2017-11-04T11:33:38.063Z,14.40
2017-11-04T11:36:06.334Z,14.40
2017-11-04T11:38:34.655Z,14.60
2017-11-04T11:41:02.936Z,14.70
2017-11-04T11:43:31.206Z,14.80
2017-11-04T11:45:59.469Z,14.80
2017-11-04T11:48:27.871Z,14.80
2017-11-04T11:50:56.211Z,14.80
2017-11-04T11:53:24.626Z,14.90
2017-11-04T11:55:53.007Z,14.70
2017-11-04T11:58:21.603Z,14.70
2017-11-04T12:00:49.871Z,14.80
2017-11-04T12:03:18.308Z,14.90
2017-11-04T12:05:46.587Z,15.10
2017-11-04T12:08:14.906Z,15.60
2017-11-04T12:10:43.164Z,16.10
2017-11-04T12:13:11.738Z,16.80
2017-11-04T12:15:39.989Z,17.30
2017-11-04T12:18:08.309Z,17.70
2017-11-04T12:20:37.743Z,18.30
2017-11-04T12:23:06.789Z,18.40
2017-11-04T12:25:35.039Z,18.30
2017-11-04T12:28:03.315Z,18.10
2017-11-04T12:30:31.594Z,17.70
2017-11-04T12:32:59.853Z,17.50
2017-11-04T12:35:28.201Z,17.50
2017-11-04T12:37:56.463Z,17.70
2017-11-04T12:40:25.470Z,18.20
2017-11-04T12:42:53.750Z,18.20
2017-11-04T12:45:22.013Z,18.30
2017-11-04T12:47:50.257Z,18.10
2017-11-04T12:50:20.762Z,18.10
2017-11-04T12:52:49.014Z,18.10
2017-11-04T12:55:17.274Z,18.10
2017-11-04T12:57:45.753Z,18.30
2017-11-04T13:00:14.012Z,18.60
2017-11-04T13:02:43.238Z,18.90
2017-11-04T13:05:11.515Z,19.20
2017-11-04T13:07:39.762Z,19.70
2017-11-04T13:10:08.022Z,19.60
2017-11-04T13:12:37.426Z,19.40
2017-11-04T13:15:06.679Z,19.10
2017-11-04T13:17:35.241Z,18.90
2017-11-04T13:20:03.572Z,18.90
2017-11-04T13:22:31.835Z,19.40
2017-11-04T13:25:03.903Z,20.60
2017-11-04T13:27:33.024Z,20.50
2017-11-04T13:30:01.275Z,21.20
2017-11-04T13:32:30.320Z,22.00
2017-11-04T13:34:58.578Z,22.00
2017-11-04T13:37:30.071Z,22.00
2017-11-04T13:39:58.424Z,22.00
2017-11-04T13:42:26.731Z,21.80
2017-11-04T13:44:55.006Z,21.50
2017-11-04T13:47:23.290Z,21.40
2017-11-04T13:49:51.561Z,21.10
2017-11-04T13:52:19.819Z,20.80
2017-11-04T13:54:50.295Z,20.60
2017-11-04T13:57:19.317Z,20.00
2017-11-04T13:59:47.946Z,20.00
2017-11-04T14:02:16.395Z,19.70
2017-11-04T14:04:44.693Z,19.20
2017-11-04T14:07:12.954Z,18.70
2017-11-04T14:09:42.399Z,18.20
2017-11-04T14:12:11.563Z,17.50
2017-11-04T14:14:39.806Z,17.50
2017-11-04T14:17:09.445Z,17.40
2017-11-04T14:19:39.894Z,17.40
2017-11-04T14:22:08.166Z,17.50
2017-11-04T14:24:36.738Z,17.40
2017-11-04T14:27:04.990Z,17.30
2017-11-04T14:29:33.244Z,17.40
2017-11-04T14:32:02.734Z,17.20
2017-11-04T14:34:31.761Z,17.00
2017-11-04T14:37:00.007Z,17.00
2017-11-04T14:39:28.802Z,16.90
2017-11-04T14:41:57.066Z,16.90
2017-11-04T14:44:26.154Z,16.90
2017-11-04T14:46:55.338Z,16.90
2017-11-04T14:49:23.592Z,16.90
2017-11-04T14:51:51.854Z,16.90
2017-11-04T14:54:20.140Z,16.80
2017-11-04T14:56:48.395Z,16.70
2017-11-04T14:59:16.674Z,16.60
2017-11-04T15:01:45.158Z,16.50
2017-11-04T15:04:13.426Z,16.50
2017-11-04T15:06:41.870Z,16.40
2017-11-04T15:09:11.044Z,16.30
2017-11-04T15:11:39.287Z,16.30
2017-11-04T15:14:07.670Z,16.30
2017-11-04T15:16:39.120Z,16.20
2017-11-04T15:19:07.466Z,16.20
2017-11-04T15:21:37.687Z,16.20
2017-11-04T15:24:06.742Z,16.10
2017-11-04T15:26:35.022Z,16.10
2017-11-04T15:29:03.446Z,16.00
2017-11-04T15:31:33.722Z,15.90
2017-11-04T15:34:01.981Z,15.90
2017-11-04T15:36:30.630Z,15.80
2017-11-04T15:39:00.887Z,15.70
2017-11-04T15:41:29.650Z,15.70
2017-11-04T15:43:59.099Z,15.70
2017-11-04T15:46:28.974Z,15.60
2017-11-04T15:48:57.563Z,15.50
2017-11-04T15:51:25.915Z,15.50
2017-11-04T15:53:54.318Z,15.40
2017-11-04T15:56:22.646Z,15.40
2017-11-04T15:58:50.899Z,15.40
2017-11-04T16:01:20.362Z,15.30
2017-11-04T16:03:49.050Z,15.30
2017-11-04T16:06:18.832Z,15.20
2017-11-04T16:08:47.352Z,15.20
2017-11-04T16:11:16.615Z,15.10
2017-11-04T16:13:44.871Z,15.10
2017-11-04T16:16:13.205Z,15.10
2017-11-04T16:18:42.671Z,15.00
2017-11-04T16:21:12.888Z,14.90
2017-11-04T16:23:41.170Z,14.90
2017-11-04T16:26:09.447Z,14.80
2017-11-04T16:28:38.646Z,14.80
2017-11-04T16:31:06.926Z,14.70
2017-11-04T16:33:35.426Z,14.70
2017-11-04T16:36:03.691Z,14.70
2017-11-04T16:38:32.035Z,14.60
2017-11-04T16:41:00.294Z,14.60
2017-11-04T16:43:28.538Z,14.60
2017-11-04T16:45:56.837Z,14.50
2017-11-04T16:48:25.074Z,14.50
2017-11-04T16:50:53.470Z,14.60
2017-11-04T16:53:21.771Z,14.60
2017-11-04T16:55:50.202Z,14.60
2017-11-04T16:58:18.467Z,14.50
2017-11-04T17:00:48.562Z,14.50
2017-11-04T17:03:16.840Z,14.50
2017-11-04T17:05:45.086Z,14.50
2017-11-04T17:08:13.362Z,14.50
2017-11-04T17:10:42.635Z,14.40
2017-11-04T17:13:10.898Z,14.40
2017-11-04T17:15:39.186Z,14.30
2017-11-04T17:18:09.681Z,14.30
2017-11-04T17:20:37.920Z,14.40
2017-11-04T17:23:06.562Z,14.50
2017-11-04T17:25:34.952Z,14.50
2017-11-04T17:28:03.437Z,14.40
2017-11-04T17:30:31.842Z,14.40
2017-11-04T17:33:02.031Z,14.40
2017-11-04T17:35:30.433Z,14.40
2017-11-04T17:38:03.693Z,14.50
2017-11-04T17:40:32.123Z,14.40
2017-11-04T17:43:01.142Z,14.20
2017-11-04T17:45:29.618Z,14.20
2017-11-04T17:47:57.870Z,14.10
2017-11-04T17:50:26.949Z,14.00
2017-11-04T17:52:55.215Z,14.00
2017-11-04T17:55:23.477Z,13.90
2017-11-04T17:57:51.723Z,13.90
2017-11-04T18:00:20.014Z,13.80
2017-11-04T18:02:48.283Z,13.80
2017-11-04T18:05:17.814Z,13.80
2017-11-04T18:07:46.292Z,13.80
2017-11-04T18:10:15.897Z,13.80
2017-11-04T18:12:44.162Z,13.90
2017-11-04T18:15:14.913Z,13.90
2017-11-04T18:17:43.188Z,13.90
2017-11-04T18:20:11.568Z,13.90
2017-11-04T18:22:40.620Z,14.00
2017-11-04T18:25:09.047Z,13.90
2017-11-04T18:27:37.463Z,14.00
2017-11-04T18:30:07.798Z,14.00
2017-11-04T18:32:36.972Z,13.90
2017-11-04T18:35:05.347Z,13.90
2017-11-04T18:37:33.645Z,13.90
2017-11-04T18:40:02.099Z,13.80
2017-11-04T18:42:30.514Z,13.80
2017-11-04T18:44:58.807Z,13.80
2017-11-04T18:47:27.063Z,13.80
2017-11-04T18:49:55.331Z,13.80
2017-11-04T18:52:23.781Z,13.80
2017-11-04T18:54:52.096Z,13.70
2017-11-04T18:57:20.394Z,13.70
2017-11-04T18:59:48.904Z,13.80
2017-11-04T19:02:17.149Z,13.70
2017-11-04T19:04:45.590Z,13.70
2017-11-04T19:07:15.992Z,13.80
2017-11-04T19:09:44.250Z,13.70
2017-11-04T19:12:12.510Z,13.70
2017-11-04T19:14:40.843Z,13.60
2017-11-04T19:17:10.243Z,13.60
2017-11-04T19:19:38.504Z,13.50
2017-11-04T19:22:07.026Z,13.50
2017-11-04T19:24:37.218Z,13.50
2017-11-04T19:27:09.636Z,13.50
2017-11-04T19:29:37.966Z,13.50
2017-11-04T19:32:06.371Z,13.40
2017-11-04T19:34:37.575Z,13.40
2017-11-04T19:37:05.874Z,13.40
2017-11-04T19:39:34.283Z,13.30
2017-11-04T19:42:03.582Z,13.20
2017-11-04T19:44:33.786Z,13.10
2017-11-04T19:47:02.161Z,13.10
2017-11-04T19:49:32.026Z,13.10
2017-11-04T19:52:00.489Z,13.00
2017-11-04T19:54:28.823Z,13.00
2017-11-04T19:56:57.560Z,12.90
2017-11-04T19:59:32.703Z,12.80
2017-11-04T20:02:02.303Z,12.80
2017-11-04T20:04:32.480Z,12.80
2017-11-04T20:07:07.317Z,12.80
2017-11-04T20:09:36.018Z,12.80
2017-11-04T20:12:07.144Z,12.80
2017-11-04T20:14:40.653Z,12.80
2017-11-04T20:17:09.125Z,12.80
2017-11-04T20:19:37.403Z,12.70
2017-11-04T20:22:05.678Z,12.70
2017-11-04T20:24:34.899Z,12.60
2017-11-04T20:27:03.931Z,12.60
2017-11-04T20:29:32.218Z,12.60
2017-11-04T20:32:00.496Z,12.60
2017-11-04T20:34:29.051Z,12.60
2017-11-04T20:36:57.558Z,12.50
2017-11-04T20:39:25.959Z,12.50
2017-11-04T20:41:54.279Z,12.60
2017-11-04T20:44:25.639Z,12.50
2017-11-04T20:46:54.079Z,12.50
2017-11-04T20:49:22.332Z,12.50
2017-11-04T20:51:50.617Z,12.40
2017-11-04T20:54:18.875Z,12.40
2017-11-04T20:56:49.371Z,12.40
2017-11-04T20:59:17.876Z,12.30
2017-11-04T21:01:46.162Z,12.30
2017-11-04T21:04:14.443Z,12.30
2017-11-04T21:06:42.730Z,12.40
2017-11-04T21:09:10.985Z,12.60
2017-11-04T21:11:39.247Z,12.50
2017-11-04T21:14:07.546Z,12.30
2017-11-04T21:16:35.821Z,12.30
2017-11-04T21:19:04.066Z,12.30
2017-11-04T21:21:32.608Z,12.20
2017-11-04T21:24:00.886Z,11.90
2017-11-04T21:26:29.144Z,11.80
2017-11-04T21:28:57.420Z,11.90
2017-11-04T21:31:25.690Z,11.90
2017-11-04T21:33:54.287Z,11.80
2017-11-04T21:36:23.766Z,11.70
2017-11-04T21:38:52.088Z,11.60
2017-11-04T21:41:20.758Z,11.60
2017-11-04T21:43:49.276Z,11.50
2017-11-04T21:46:20.627Z,11.40
2017-11-04T21:48:50.892Z,11.40
2017-11-04T21:51:19.187Z,11.30
2017-11-04T21:53:47.443Z,11.30
2017-11-04T21:56:15.717Z,11.30
2017-11-04T21:58:46.202Z,11.20
2017-11-04T22:01:15.249Z,11.20
2017-11-04T22:03:45.796Z,11.20
2017-11-04T22:06:14.089Z,11.20
2017-11-04T22:08:45.549Z,11.20
2017-11-04T22:11:14.287Z,11.10
2017-11-04T22:13:42.574Z,11.10
2017-11-04T22:16:10.837Z,11.20
2017-11-04T22:18:39.706Z,11.20
2017-11-04T22:21:09.943Z,11.20
2017-11-04T22:23:38.304Z,11.20
2017-11-04T22:26:07.665Z,11.20
2017-11-04T22:28:35.963Z,11.10
2017-11-04T22:31:04.328Z,11.10
2017-11-04T22:33:32.710Z,11.20
2017-11-04T22:36:01.097Z,11.10
2017-11-04T22:38:30.126Z,11.00
2017-11-04T22:40:58.415Z,10.90
2017-11-04T22:43:26.715Z,10.90
2017-11-04T22:45:54.968Z,10.90
2017-11-04T22:48:23.334Z,10.90
2017-11-04T22:50:51.586Z,10.90
2017-11-04T22:53:19.842Z,10.90
2017-11-04T22:55:48.138Z,10.80
2017-11-04T22:58:17.146Z,10.70
2017-11-04T23:00:45.418Z,10.60
2017-11-04T23:03:14.470Z,10.70
2017-11-04T23:05:42.723Z,10.70
2017-11-04T23:08:10.971Z,10.70
2017-11-04T23:10:40.078Z,10.60
2017-11-04T23:13:08.344Z,10.50
2017-11-04T23:15:36.603Z,10.50
2017-11-04T23:18:04.891Z,10.50
2017-11-04T23:20:33.906Z,10.60
2017-11-04T23:23:02.443Z,10.50
2017-11-04T23:25:30.711Z,10.50
2017-11-04T23:27:58.973Z,10.60
2017-11-04T23:30:27.280Z,10.70
2017-11-04T23:32:56.056Z,10.70
2017-11-04T23:35:24.371Z,10.70
2017-11-04T23:37:53.393Z,10.60
2017-11-04T23:40:21.675Z,10.60
2017-11-04T23:42:49.927Z,10.50
2017-11-04T23:45:18.178Z,10.50
2017-11-04T23:47:47.240Z,10.20
2017-11-04T23:50:15.498Z,10.20
2017-11-04T23:52:43.909Z,10.20
2017-11-04T23:55:12.251Z,10.20
2017-11-04T23:57:40.494Z,10.20
